Time;durP1;ratioP1;P1;durP2;ratioP2;P2;SDS_P1;SDS_P2;PMS_P1;PMS_P2;Temp;Humidity;BMP_temperature;BMP_pressure;BME280_temperature;BME280_humidity;BME280_pressure;Samples;Min_cycle;Max_cycle;Signal;HPM_P1;HPM_P2
2021/12/12 00:02:21;;;;;;;;;;;5.50;86.20;;;;;;5043788;28;83578;-63
2021/12/12 00:04:48;;;;;;;;;;;5.50;86.30;;;;;;5044525;28;82592;-63
2021/12/12 00:07:18;;;;;;;;;;;5.50;86.50;;;;;;5044643;28;83970;-63
2021/12/12 00:09:45;;;;;;;;;;;5.50;86.30;;;;;;5040830;28;83671;-63
2021/12/12 00:12:13;;;;;;;;;;;5.50;86.40;;;;;;5042274;28;83260;-63
2021/12/12 00:14:39;;;;;;;;;;;5.50;86.50;;;;;;5041462;28;83143;-63
2021/12/12 00:17:07;;;;;;;;;;;5.50;86.40;;;;;;5042209;28;82145;-64
2021/12/12 00:19:35;;;;;;;;;;;5.50;86.30;;;;;;5042477;28;83806;-63
2021/12/12 00:22:03;;;;;;;;;;;5.50;86.50;;;;;;5042734;28;84293;-63
2021/12/12 00:24:29;;;;;;;;;;;5.50;86.40;;;;;;5043326;28;82178;-63
2021/12/12 00:26:56;;;;;;;;;;;5.50;86.20;;;;;;5041100;28;82105;-63
2021/12/12 00:29:23;;;;;;;;;;;5.50;86.60;;;;;;5045169;28;81363;-63
2021/12/12 00:31:50;;;;;;;;;;;5.50;86.60;;;;;;5044503;28;82140;-63
2021/12/12 00:34:16;;;;;;;;;;;5.50;86.50;;;;;;5043078;28;82162;-63
2021/12/12 00:36:42;;;;;;;;;;;5.50;86.40;;;;;;5043337;28;83010;-64
2021/12/12 00:39:11;;;;;;;;;;;5.50;86.50;;;;;;5042647;28;83448;-63
2021/12/12 00:41:42;;;;;;;;;;;5.50;86.50;;;;;;5042499;28;83345;-63
2021/12/12 00:44:08;;;;;;;;;;;5.50;86.60;;;;;;5043811;28;82621;-63
2021/12/12 00:46:35;;;;;;;;;;;5.50;86.50;;;;;;5044548;28;82949;-62
2021/12/12 00:49:00;;;;;;;;;;;5.50;86.40;;;;;;5041159;28;83746;-64
2021/12/12 00:51:29;;;;;;;;;;;5.50;86.60;;;;;;5039561;28;83430;-63
2021/12/12 00:53:55;;;;;;;;;;;5.50;86.60;;;;;;5043169;28;82897;-64
2021/12/12 00:56:20;;;;;;;;;;;5.50;86.70;;;;;;5043097;28;82100;-63
2021/12/12 00:58:46;;;;;;;;;;;5.50;86.60;;;;;;5044122;28;82329;-63
2021/12/12 01:01:14;;;;;;;;;;;5.50;86.60;;;;;;5040953;28;83852;-63
2021/12/12 01:03:42;;;;;;;;;;;5.50;86.50;;;;;;5043321;28;82133;-63
2021/12/12 01:06:08;;;;;;;;;;;5.50;86.60;;;;;;5044315;28;83345;-63
2021/12/12 01:08:35;;;;;;;;;;;5.50;86.50;;;;;;5041072;28;82091;-63
2021/12/12 01:11:07;;;;;;;;;;;5.50;86.60;;;;;;5039566;28;82160;-63
2021/12/12 01:13:33;;;;;;;;;;;5.50;86.50;;;;;;5039242;28;83367;-63
2021/12/12 01:16:09;;;;;;;;;;;5.50;86.50;;;;;;5039398;28;82099;-63
2021/12/12 01:18:37;;;;;;;;;;;5.50;86.60;;;;;;5040639;28;83841;-63
2021/12/12 01:21:11;;;;;;;;;;;5.50;86.60;;;;;;5042272;28;83758;-63
2021/12/12 01:23:43;;;;;;;;;;;5.50;86.20;;;;;;5041173;28;82110;-63
2021/12/12 01:26:09;;;;;;;;;;;5.50;86.30;;;;;;5040260;28;83034;-62
2021/12/12 01:28:37;;;;;;;;;;;5.50;86.60;;;;;;5043142;28;82859;-63
2021/12/12 01:31:05;;;;;;;;;;;5.50;86.60;;;;;;5042979;28;82141;-64
2021/12/12 01:33:35;;;;;;;;;;;5.50;86.60;;;;;;5041581;28;83594;-63
2021/12/12 01:36:09;;;;;;;;;;;5.50;86.40;;;;;;5043092;28;82125;-63
2021/12/12 01:41:24;;;;;;;;;;;5.50;86.40;;;;;;5042052;28;82159;-63
2021/12/12 01:43:50;;;;;;;;;;;5.50;86.20;;;;;;5044031;28;81412;-63
2021/12/12 01:46:23;;;;;;;;;;;5.50;86.10;;;;;;5044009;28;82211;-63
2021/12/12 01:48:53;;;;;;;;;;;5.50;86.20;;;;;;5040535;28;84357;-63
2021/12/12 01:51:19;;;;;;;;;;;5.50;86.20;;;;;;5045619;28;83092;-64
2021/12/12 01:53:47;;;;;;;;;;;5.50;86.10;;;;;;5043506;28;82855;-63
2021/12/12 01:56:17;;;;;;;;;;;5.50;86.30;;;;;;5041929;28;82138;-63
2021/12/12 01:58:44;;;;;;;;;;;5.50;86.10;;;;;;5043372;28;82298;-63
2021/12/12 02:01:16;;;;;;;;;;;5.50;86.20;;;;;;5042631;28;83214;-63
2021/12/12 02:03:44;;;;;;;;;;;5.50;86.20;;;;;;5042543;28;82157;-63
2021/12/12 02:06:11;;;;;;;;;;;5.50;86.20;;;;;;5039892;28;82198;-63
2021/12/12 02:08:38;;;;;;;;;;;5.50;86.30;;;;;;5039418;28;82564;-63
2021/12/12 02:11:12;;;;;;;;;;;5.50;86.30;;;;;;5039026;28;82045;-63
2021/12/12 02:13:39;;;;;;;;;;;5.50;86.40;;;;;;5044352;28;82214;-64
2021/12/12 02:16:06;;;;;;;;;;;5.50;86.40;;;;;;5038837;28;83086;-63
2021/12/12 02:18:36;;;;;;;;;;;5.50;86.30;;;;;;5039356;28;82584;-63
2021/12/12 02:21:31;;;;;;;;;;;5.50;86.30;;;;;;5040689;27;83075;-63
2021/12/12 02:35:11;;;;;;;;;;;5.50;86.50;;;;;;5046976;28;81558;-64
2021/12/12 02:37:37;;;;;;;;;;;5.40;86.60;;;;;;5045351;28;84630;-63
2021/12/12 02:40:04;;;;;;;;;;;5.40;86.60;;;;;;5043852;28;82239;-63
2021/12/12 02:42:30;;;;;;;;;;;5.40;86.60;;;;;;5040631;28;83064;-63
2021/12/12 02:44:59;;;;;;;;;;;5.40;86.70;;;;;;5042114;28;83144;-63
2021/12/12 02:47:33;;;;;;;;;;;5.40;86.70;;;;;;5044766;28;82298;-63
2021/12/12 02:50:13;;;;;;;;;;;5.50;86.70;;;;;;5041793;28;84153;-63
2021/12/12 02:52:40;;;;;;;;;;;5.40;86.50;;;;;;5044174;28;82094;-63
2021/12/12 02:55:16;;;;;;;;;;;5.40;86.50;;;;;;5042279;28;84229;-63
2021/12/12 02:57:42;;;;;;;;;;;5.40;86.60;;;;;;5043142;28;83315;-64
2021/12/12 03:00:10;;;;;;;;;;;5.40;86.70;;;;;;5047179;28;81385;-63
2021/12/12 03:02:43;;;;;;;;;;;5.40;86.70;;;;;;5042517;28;82103;-63
2021/12/12 03:05:10;;;;;;;;;;;5.40;86.70;;;;;;5045598;28;83777;-63
2021/12/12 03:07:35;;;;;;;;;;;5.40;87.20;;;;;;5044408;28;83958;-63
2021/12/12 03:10:03;;;;;;;;;;;5.40;86.60;;;;;;5042192;28;83627;-63
2021/12/12 03:12:33;;;;;;;;;;;5.50;86.70;;;;;;5045944;28;82186;-63
2021/12/12 03:15:01;;;;;;;;;;;5.40;86.60;;;;;;5042333;28;83292;-63
2021/12/12 03:17:27;;;;;;;;;;;5.40;86.70;;;;;;5045659;28;83855;-63
2021/12/12 03:19:54;;;;;;;;;;;5.50;86.90;;;;;;5046478;28;82116;-63
2021/12/12 03:22:20;;;;;;;;;;;5.50;86.90;;;;;;5045235;28;82661;-63
2021/12/12 03:24:46;;;;;;;;;;;5.50;87.00;;;;;;5046166;28;81384;-64
2021/12/12 03:27:13;;;;;;;;;;;5.50;86.80;;;;;;5044057;28;83106;-63
2021/12/12 03:29:39;;;;;;;;;;;5.40;86.70;;;;;;5045600;28;82973;-63
2021/12/12 03:32:15;;;;;;;;;;;5.40;86.90;;;;;;5044538;28;83043;-63
2021/12/12 03:34:48;;;;;;;;;;;5.40;86.70;;;;;;5045455;27;83662;-64
2021/12/12 03:37:15;;;;;;;;;;;5.40;86.70;;;;;;5043557;28;83348;-63
2021/12/12 03:39:42;;;;;;;;;;;5.50;86.80;;;;;;5042615;28;82185;-63
2021/12/12 03:42:10;;;;;;;;;;;5.40;86.60;;;;;;5044956;28;82537;-64
2021/12/12 03:44:38;;;;;;;;;;;5.40;86.80;;;;;;5040750;28;82419;-63
2021/12/12 03:47:18;;;;;;;;;;;5.40;86.60;;;;;;5044753;28;82826;-64
2021/12/12 03:49:44;;;;;;;;;;;5.40;86.60;;;;;;5042676;28;82888;-63
2021/12/12 03:52:11;;;;;;;;;;;5.50;86.70;;;;;;5043836;28;83015;-63
2021/12/12 03:54:36;;;;;;;;;;;5.40;86.70;;;;;;5043913;28;82100;-63
2021/12/12 03:57:03;;;;;;;;;;;5.50;87.00;;;;;;5041691;28;84094;-63
2021/12/12 03:59:28;;;;;;;;;;;5.40;86.90;;;;;;5040925;28;82135;-63
2021/12/12 04:01:54;;;;;;;;;;;5.40;86.80;;;;;;5040126;28;82106;-63
2021/12/12 04:04:30;;;;;;;;;;;5.40;86.60;;;;;;5045963;28;83715;-63
2021/12/12 04:06:57;;;;;;;;;;;5.40;87.00;;;;;;5043861;28;82632;-63
2021/12/12 04:09:22;;;;;;;;;;;5.40;86.90;;;;;;5041957;28;83193;-63
2021/12/12 04:11:53;;;;;;;;;;;5.50;86.60;;;;;;5041139;28;82193;-63
2021/12/12 04:14:19;;;;;;;;;;;5.50;86.50;;;;;;5040735;28;82239;-63
2021/12/12 04:16:47;;;;;;;;;;;5.40;86.80;;;;;;5042326;28;83201;-63
2021/12/12 04:19:12;;;;;;;;;;;5.40;86.70;;;;;;5043410;28;82147;-63
2021/12/12 04:21:39;;;;;;;;;;;5.40;87.00;;;;;;5043183;28;83084;-63
2021/12/12 04:24:05;;;;;;;;;;;5.40;86.90;;;;;;5043072;28;82391;-63
2021/12/12 04:26:36;;;;;;;;;;;5.40;87.00;;;;;;5045945;28;82137;-63
2021/12/12 04:29:05;;;;;;;;;;;5.40;86.80;;;;;;5043715;28;82654;-63
2021/12/12 04:31:31;;;;;;;;;;;5.40;87.00;;;;;;5040996;28;82123;-63
2021/12/12 04:33:57;;;;;;;;;;;5.40;87.00;;;;;;5041343;28;82102;-63
2021/12/12 04:36:27;;;;;;;;;;;5.40;87.00;;;;;;5041557;28;83851;-63
2021/12/12 04:38:57;;;;;;;;;;;5.40;86.90;;;;;;5043896;28;81381;-63
2021/12/12 04:41:22;;;;;;;;;;;5.40;87.00;;;;;;5044592;28;82128;-63
2021/12/12 04:43:48;;;;;;;;;;;5.50;86.90;;;;;;5041712;28;83771;-63
2021/12/12 04:46:21;;;;;;;;;;;5.40;86.80;;;;;;5038974;28;83078;-63
2021/12/12 04:51:42;;;;;;;;;;;5.40;86.60;;;;;;5042286;28;82078;-63
2021/12/12 04:54:11;;;;;;;;;;;5.40;86.70;;;;;;5041376;28;82089;-63
2021/12/12 04:56:43;;;;;;;;;;;5.40;86.80;;;;;;5042712;28;82100;-64
2021/12/12 04:59:31;;;;;;;;;;;5.40;86.90;;;;;;5042335;28;82152;-63
2021/12/12 05:02:23;;;;;;;;;;;5.40;86.60;;;;;;5040272;28;82110;-63
2021/12/12 05:04:58;;;;;;;;;;;5.40;87.00;;;;;;5039506;27;82369;-64
2021/12/12 05:07:30;;;;;;;;;;;5.40;86.70;;;;;;5042093;28;82102;-64
2021/12/12 05:10:05;;;;;;;;;;;5.40;86.70;;;;;;5042222;28;82141;-63
2021/12/12 05:12:31;;;;;;;;;;;5.40;86.70;;;;;;5039777;28;83038;-64
2021/12/12 05:14:59;;;;;;;;;;;5.40;86.60;;;;;;5041702;28;83833;-63
2021/12/12 05:17:53;;;;;;;;;;;5.40;87.00;;;;;;5040116;28;83855;-63
2021/12/12 05:20:21;;;;;;;;;;;5.40;87.10;;;;;;5035789;28;84947;-63
2021/12/12 05:22:51;;;;;;;;;;;5.40;86.60;;;;;;5044457;28;82270;-63
2021/12/12 05:25:23;;;;;;;;;;;5.40;86.50;;;;;;5039778;28;82105;-63
2021/12/12 05:27:51;;;;;;;;;;;5.40;86.60;;;;;;5039432;28;82116;-63
2021/12/12 05:30:18;;;;;;;;;;;5.40;86.80;;;;;;5044479;28;82207;-63
2021/12/12 05:32:46;;;;;;;;;;;5.40;86.50;;;;;;5045088;28;82217;-63
2021/12/12 05:35:13;;;;;;;;;;;5.40;86.60;;;;;;5041023;28;82660;-63
2021/12/12 05:37:39;;;;;;;;;;;5.40;86.80;;;;;;5038656;28;83196;-63
2021/12/12 05:40:07;;;;;;;;;;;5.40;86.60;;;;;;5039805;28;82159;-63
2021/12/12 05:42:33;;;;;;;;;;;5.40;86.60;;;;;;5043206;28;84325;-63
2021/12/12 05:44:59;;;;;;;;;;;5.40;86.50;;;;;;5040878;28;83177;-63
2021/12/12 05:47:25;;;;;;;;;;;5.40;86.60;;;;;;5039944;28;82601;-63
2021/12/12 05:49:50;;;;;;;;;;;5.40;86.60;;;;;;5039729;28;82472;-64
2021/12/12 05:52:18;;;;;;;;;;;5.40;86.60;;;;;;5040341;28;82994;-63
2021/12/12 05:54:46;;;;;;;;;;;5.30;87.20;;;;;;5043676;28;83007;-63
2021/12/12 05:57:12;;;;;;;;;;;5.40;86.80;;;;;;5043725;28;83084;-63
2021/12/12 05:59:38;;;;;;;;;;;5.40;86.60;;;;;;5045938;28;82154;-63
2021/12/12 06:02:06;;;;;;;;;;;5.40;86.40;;;;;;5046003;28;83123;-63
2021/12/12 06:04:32;;;;;;;;;;;5.30;86.80;;;;;;5044842;28;82282;-63
2021/12/12 06:07:00;;;;;;;;;;;5.40;86.60;;;;;;5043789;28;82181;-63
2021/12/12 06:09:26;;;;;;;;;;;5.40;86.60;;;;;;5043059;28;82756;-63
2021/12/12 06:11:52;;;;;;;;;;;5.40;86.60;;;;;;5044081;28;83099;-63
2021/12/12 06:14:18;;;;;;;;;;;5.30;86.50;;;;;;5044550;28;82106;-63
2021/12/12 06:16:43;;;;;;;;;;;5.40;86.60;;;;;;5047745;28;82334;-63
2021/12/12 06:19:15;;;;;;;;;;;5.30;86.50;;;;;;5045407;28;81507;-63
2021/12/12 06:21:41;;;;;;;;;;;5.30;86.60;;;;;;5044650;28;82180;-64
2021/12/12 06:24:07;;;;;;;;;;;5.30;86.40;;;;;;5044792;28;82856;-64
2021/12/12 06:26:33;;;;;;;;;;;5.30;86.70;;;;;;5045186;28;83086;-63
2021/12/12 06:28:59;;;;;;;;;;;5.40;86.50;;;;;;5045991;28;83759;-64
2021/12/12 06:31:25;;;;;;;;;;;5.30;86.60;;;;;;5045822;28;83107;-63
2021/12/12 06:33:50;;;;;;;;;;;5.30;86.60;;;;;;5043050;28;82455;-63
2021/12/12 06:36:16;;;;;;;;;;;5.30;86.90;;;;;;5041809;28;82935;-63
2021/12/12 06:38:43;;;;;;;;;;;5.30;86.80;;;;;;5044473;28;83302;-63
2021/12/12 06:41:09;;;;;;;;;;;5.30;86.60;;;;;;5044406;28;83419;-63
2021/12/12 06:43:35;;;;;;;;;;;5.30;86.90;;;;;;5046886;28;84148;-63
2021/12/12 06:46:02;;;;;;;;;;;5.30;87.40;;;;;;5045000;28;82885;-63
2021/12/12 06:48:28;;;;;;;;;;;5.30;86.60;;;;;;5045579;28;82534;-64
2021/12/12 06:50:56;;;;;;;;;;;5.30;86.60;;;;;;5045266;28;83894;-64
2021/12/12 06:53:23;;;;;;;;;;;5.30;86.50;;;;;;5044615;28;82099;-63
2021/12/12 06:55:48;;;;;;;;;;;5.30;86.50;;;;;;5043716;28;82467;-64
2021/12/12 06:58:15;;;;;;;;;;;5.30;86.80;;;;;;5044361;28;82176;-64
2021/12/12 07:00:42;;;;;;;;;;;5.30;86.80;;;;;;5046131;28;82077;-63
2021/12/12 07:03:08;;;;;;;;;;;5.30;86.60;;;;;;5041423;28;82532;-64
2021/12/12 07:05:34;;;;;;;;;;;5.30;86.80;;;;;;5042638;28;82107;-63
2021/12/12 07:08:00;;;;;;;;;;;5.30;86.70;;;;;;5043547;28;82533;-63
2021/12/12 07:10:28;;;;;;;;;;;5.30;86.80;;;;;;5043741;28;84303;-63
2021/12/12 07:12:56;;;;;;;;;;;5.30;87.30;;;;;;5042030;28;82087;-63
2021/12/12 07:15:23;;;;;;;;;;;5.30;86.90;;;;;;5042808;28;83317;-63
2021/12/12 07:17:52;;;;;;;;;;;5.20;86.70;;;;;;5045197;28;83178;-64
2021/12/12 07:20:17;;;;;;;;;;;5.30;86.60;;;;;;5045173;28;82120;-63
2021/12/12 07:22:43;;;;;;;;;;;5.30;86.80;;;;;;5042796;28;83120;-63
2021/12/12 07:25:09;;;;;;;;;;;5.20;86.60;;;;;;5043362;28;82083;-63
2021/12/12 07:27:34;;;;;;;;;;;5.30;86.50;;;;;;5044344;28;82102;-63
2021/12/12 07:30:01;;;;;;;;;;;5.30;86.50;;;;;;5045228;28;82911;-63
2021/12/12 07:32:27;;;;;;;;;;;5.30;86.40;;;;;;5045553;28;81381;-63
2021/12/12 07:34:54;;;;;;;;;;;5.30;86.50;;;;;;5045217;28;82127;-63
2021/12/12 07:37:20;;;;;;;;;;;5.30;86.50;;;;;;5045508;28;82353;-64
2021/12/12 07:39:46;;;;;;;;;;;5.30;86.10;;;;;;5043907;28;84300;-64
2021/12/12 07:42:12;;;;;;;;;;;5.30;86.40;;;;;;5045904;28;83742;-63
2021/12/12 07:44:40;;;;;;;;;;;5.30;86.50;;;;;;5042986;28;82672;-63
2021/12/12 07:47:06;;;;;;;;;;;5.30;86.10;;;;;;5043802;28;84263;-63
2021/12/12 07:49:34;;;;;;;;;;;5.30;86.20;;;;;;5043205;28;83345;-64
2021/12/12 07:52:00;;;;;;;;;;;5.30;85.90;;;;;;5042278;28;82071;-64
2021/12/12 07:54:26;;;;;;;;;;;5.30;85.90;;;;;;5041949;28;82445;-64
2021/12/12 07:56:52;;;;;;;;;;;5.30;86.20;;;;;;5042961;28;81843;-64
2021/12/12 07:59:19;;;;;;;;;;;5.30;86.40;;;;;;5042565;28;82122;-63
2021/12/12 08:01:45;;;;;;;;;;;5.30;86.00;;;;;;5041794;28;82668;-64
2021/12/12 08:04:12;;;;;;;;;;;5.30;85.90;;;;;;5043100;28;84177;-64
2021/12/12 08:06:38;;;;;;;;;;;5.30;85.80;;;;;;5041354;28;83586;-64
2021/12/12 08:09:04;;;;;;;;;;;5.30;85.90;;;;;;5041778;28;83007;-64
2021/12/12 08:11:33;;;;;;;;;;;5.30;85.90;;;;;;5041330;28;82187;-64
2021/12/12 08:13:59;;;;;;;;;;;5.30;85.90;;;;;;5043863;28;82397;-64
2021/12/12 08:16:25;;;;;;;;;;;5.30;85.90;;;;;;5043143;28;82320;-64
2021/12/12 08:18:51;;;;;;;;;;;5.30;86.00;;;;;;5044111;27;82098;-64
2021/12/12 08:21:18;;;;;;;;;;;5.30;86.00;;;;;;5043329;28;82283;-64
2021/12/12 08:23:44;;;;;;;;;;;5.30;86.10;;;;;;5041680;28;82547;-64
2021/12/12 08:26:10;;;;;;;;;;;5.30;85.90;;;;;;5044289;28;82073;-64
2021/12/12 08:28:37;;;;;;;;;;;5.30;85.90;;;;;;5040068;28;83298;-64
2021/12/12 08:31:04;;;;;;;;;;;5.20;86.00;;;;;;5040189;28;82127;-64
2021/12/12 08:33:30;;;;;;;;;;;5.20;86.10;;;;;;5042429;28;83735;-64
2021/12/12 08:35:57;;;;;;;;;;;5.20;86.10;;;;;;5039718;28;82933;-64
2021/12/12 08:38:23;;;;;;;;;;;5.30;85.70;;;;;;5044394;28;82115;-64
2021/12/12 08:40:50;;;;;;;;;;;5.30;85.90;;;;;;5044482;28;82092;-64
2021/12/12 08:43:19;;;;;;;;;;;5.30;85.70;;;;;;5042642;28;83079;-64
2021/12/12 08:45:48;;;;;;;;;;;5.20;85.70;;;;;;5040673;28;81940;-64
2021/12/12 08:48:16;;;;;;;;;;;5.20;85.90;;;;;;5045365;28;82098;-64
2021/12/12 08:50:42;;;;;;;;;;;5.20;85.90;;;;;;5039732;28;82096;-64
2021/12/12 08:53:08;;;;;;;;;;;5.20;86.00;;;;;;5039355;28;84552;-64
2021/12/12 08:55:37;;;;;;;;;;;5.20;86.10;;;;;;5039768;28;83139;-64
2021/12/12 08:58:17;;;;;;;;;;;5.20;86.10;;;;;;5042518;28;82208;-64
2021/12/12 09:00:57;;;;;;;;;;;5.20;85.80;;;;;;5040389;28;83859;-64
2021/12/12 09:03:24;;;;;;;;;;;5.20;86.00;;;;;;5041376;28;82245;-64
2021/12/12 09:05:50;;;;;;;;;;;5.20;86.00;;;;;;5039901;28;82139;-64
2021/12/12 09:08:28;;;;;;;;;;;5.20;85.90;;;;;;5039586;28;82528;-64
2021/12/12 09:10:57;;;;;;;;;;;5.20;85.90;;;;;;5046518;28;82451;-65
2021/12/12 09:13:25;;;;;;;;;;;5.10;85.90;;;;;;5040018;28;82078;-64
2021/12/12 09:15:56;;;;;;;;;;;5.20;85.80;;;;;;5042001;28;83004;-64
2021/12/12 09:18:27;;;;;;;;;;;5.20;85.80;;;;;;5039452;28;83132;-64
2021/12/12 09:21:02;;;;;;;;;;;5.20;85.90;;;;;;5039875;28;82090;-64
2021/12/12 09:23:34;;;;;;;;;;;5.20;85.90;;;;;;5038955;28;82229;-70
2021/12/12 09:26:02;;;;;;;;;;;5.20;85.90;;;;;;5043250;28;82140;-71
2021/12/12 09:29:03;;;;;;;;;;;5.50;87.80;;;;;;5039831;28;82109;-69
2021/12/12 09:31:34;;;;;;;;;;;6.70;88.10;;;;;;5021208;28;82258;-71
2021/12/12 09:34:06;;;;;;;;;;;7.70;83.20;;;;;;5038672;28;85359;-65
2021/12/12 09:36:31;;;;;;;;;;;8.00;81.60;;;;;;5044830;28;82886;-64
2021/12/12 09:38:56;;;;;;;;;;;8.30;80.40;;;;;;5046640;28;83800;-63
2021/12/12 09:41:45;;;;;;;;;;;8.60;79.30;;;;;;5044489;28;83183;-63
2021/12/12 09:44:28;;;;;;;;;;;8.90;78.60;;;;;;5043718;28;83622;-65
2021/12/12 09:47:28;;;;;;;;;;;9.10;77.90;;;;;;5046195;28;82227;-61
2021/12/12 09:52:47;;;;;;;;;;;9.60;77.10;;;;;;5043361;28;82960;-60
2021/12/12 09:55:17;;;;;;;;;;;9.70;76.40;;;;;;5049129;28;83049;-62
2021/12/12 09:57:46;;;;;;;;;;;10.00;75.60;;;;;;5045483;28;83180;-60
2021/12/12 10:00:17;;;;;;;;;;;10.10;75.10;;;;;;5042618;28;82132;-62
2021/12/12 10:02:43;;;;;;;;;;;10.30;75.00;;;;;;5043373;28;81967;-59
2021/12/12 10:05:18;;;;;;;;;;;10.50;74.50;;;;;;5043356;28;82103;-60
2021/12/12 10:07:54;;;;;;;;;;;10.60;74.20;;;;;;5043698;28;82217;-64
2021/12/12 10:10:24;;;;;;;;;;;10.60;73.90;;;;;;5043343;28;83070;-60
